sensor_id;sensor_type;location;lat;lon;timestamp;temperature;humidity
3690;DHT22;1861;50.240;8.596;2023-07-13T00:00:48;22.50;82.30
3690;DHT22;1861;50.240;8.596;2023-07-13T00:03:17;22.40;81.90
3690;DHT22;1861;50.240;8.596;2023-07-13T00:05:46;22.50;82.20
3690;DHT22;1861;50.240;8.596;2023-07-13T00:08:15;22.50;82.30
3690;DHT22;1861;50.240;8.596;2023-07-13T00:10:43;22.50;82.20
3690;DHT22;1861;50.240;8.596;2023-07-13T00:13:13;22.50;82.20
3690;DHT22;1861;50.240;8.596;2023-07-13T00:15:41;22.50;83.10
3690;DHT22;1861;50.240;8.596;2023-07-13T00:18:09;22.60;82.40
3690;DHT22;1861;50.240;8.596;2023-07-13T00:20:37;22.60;82.70
3690;DHT22;1861;50.240;8.596;2023-07-13T00:23:09;22.60;83.20
3690;DHT22;1861;50.240;8.596;2023-07-13T00:25:37;22.60;83.20
3690;DHT22;1861;50.240;8.596;2023-07-13T00:28:05;22.60;83.20
3690;DHT22;1861;50.240;8.596;2023-07-13T00:30:34;22.60;83.90
3690;DHT22;1861;50.240;8.596;2023-07-13T00:33:02;22.60;83.80
3690;DHT22;1861;50.240;8.596;2023-07-13T00:35:43;22.60;83.90
3690;DHT22;1861;50.240;8.596;2023-07-13T00:38:13;22.60;83.50
3690;DHT22;1861;50.240;8.596;2023-07-13T00:40:42;22.60;84.00
3690;DHT22;1861;50.240;8.596;2023-07-13T00:43:13;22.60;83.30
3690;DHT22;1861;50.240;8.596;2023-07-13T00:46:13;22.50;83.50
3690;DHT22;1861;50.240;8.596;2023-07-13T00:48:42;22.50;83.10
3690;DHT22;1861;50.240;8.596;2023-07-13T00:51:13;22.50;83.00
3690;DHT22;1861;50.240;8.596;2023-07-13T00:53:43;22.50;82.90
3690;DHT22;1861;50.240;8.596;2023-07-13T00:56:11;22.50;82.80
3690;DHT22;1861;50.240;8.596;2023-07-13T00:58:40;22.50;83.40
3690;DHT22;1861;50.240;8.596;2023-07-13T01:01:08;22.50;82.90
3690;DHT22;1861;50.240;8.596;2023-07-13T01:03:36;22.50;82.80
3690;DHT22;1861;50.240;8.596;2023-07-13T01:06:07;22.50;83.80
3690;DHT22;1861;50.240;8.596;2023-07-13T01:08:36;22.50;83.80
3690;DHT22;1861;50.240;8.596;2023-07-13T01:11:07;22.50;83.60
3690;DHT22;1861;50.240;8.596;2023-07-13T01:13:36;22.50;83.20
3690;DHT22;1861;50.240;8.596;2023-07-13T01:16:11;22.50;84.40
3690;DHT22;1861;50.240;8.596;2023-07-13T01:18:41;22.50;84.00
3690;DHT22;1861;50.240;8.596;2023-07-13T01:21:10;22.50;84.40
3690;DHT22;1861;50.240;8.596;2023-07-13T01:23:39;22.50;84.10
3690;DHT22;1861;50.240;8.596;2023-07-13T01:26:08;22.50;84.30
3690;DHT22;1861;50.240;8.596;2023-07-13T01:28:36;22.50;84.00
3690;DHT22;1861;50.240;8.596;2023-07-13T01:31:08;22.40;84.20
3690;DHT22;1861;50.240;8.596;2023-07-13T01:33:37;22.50;84.50
3690;DHT22;1861;50.240;8.596;2023-07-13T01:36:06;22.40;84.40
3690;DHT22;1861;50.240;8.596;2023-07-13T01:38:38;22.30;83.30
3690;DHT22;1861;50.240;8.596;2023-07-13T01:41:09;22.30;82.80
3690;DHT22;1861;50.240;8.596;2023-07-13T01:43:37;22.30;82.60
3690;DHT22;1861;50.240;8.596;2023-07-13T01:46:06;22.20;82.40
3690;DHT22;1861;50.240;8.596;2023-07-13T01:48:49;22.10;82.40
3690;DHT22;1861;50.240;8.596;2023-07-13T01:51:18;22.20;82.50
3690;DHT22;1861;50.240;8.596;2023-07-13T01:53:49;22.20;82.20
3690;DHT22;1861;50.240;8.596;2023-07-13T01:56:17;22.20;82.10
3690;DHT22;1861;50.240;8.596;2023-07-13T01:58:46;22.10;81.90
3690;DHT22;1861;50.240;8.596;2023-07-13T02:01:14;22.00;81.90
3690;DHT22;1861;50.240;8.596;2023-07-13T02:03:42;22.00;81.90
3690;DHT22;1861;50.240;8.596;2023-07-13T02:06:10;22.00;81.90
3690;DHT22;1861;50.240;8.596;2023-07-13T02:08:40;22.00;81.20
3690;DHT22;1861;50.240;8.596;2023-07-13T02:11:10;21.90;81.70
3690;DHT22;1861;50.240;8.596;2023-07-13T02:13:38;21.90;81.80
3690;DHT22;1861;50.240;8.596;2023-07-13T02:16:06;21.90;82.10
3690;DHT22;1861;50.240;8.596;2023-07-13T02:18:35;21.90;82.00
3690;DHT22;1861;50.240;8.596;2023-07-13T02:21:04;21.90;82.50
3690;DHT22;1861;50.240;8.596;2023-07-13T02:23:32;21.80;81.90
3690;DHT22;1861;50.240;8.596;2023-07-13T02:26:01;21.90;82.40
3690;DHT22;1861;50.240;8.596;2023-07-13T02:28:31;21.80;82.10
3690;DHT22;1861;50.240;8.596;2023-07-13T02:31:05;21.80;82.50
3690;DHT22;1861;50.240;8.596;2023-07-13T02:33:33;21.90;82.40
3690;DHT22;1861;50.240;8.596;2023-07-13T02:36:02;21.90;81.50
3690;DHT22;1861;50.240;8.596;2023-07-13T02:38:32;21.80;81.80
3690;DHT22;1861;50.240;8.596;2023-07-13T02:41:02;21.70;81.10
3690;DHT22;1861;50.240;8.596;2023-07-13T02:43:32;21.80;81.20
3690;DHT22;1861;50.240;8.596;2023-07-13T02:46:01;21.80;82.20
3690;DHT22;1861;50.240;8.596;2023-07-13T02:48:35;21.80;81.50
3690;DHT22;1861;50.240;8.596;2023-07-13T02:51:04;21.80;82.20
3690;DHT22;1861;50.240;8.596;2023-07-13T02:53:32;21.70;82.30
3690;DHT22;1861;50.240;8.596;2023-07-13T02:56:02;21.70;82.20
3690;DHT22;1861;50.240;8.596;2023-07-13T02:58:32;21.70;82.00
3690;DHT22;1861;50.240;8.596;2023-07-13T03:01:06;21.60;82.40
3690;DHT22;1861;50.240;8.596;2023-07-13T03:03:35;21.60;82.00
3690;DHT22;1861;50.240;8.596;2023-07-13T03:06:04;21.60;80.80
3690;DHT22;1861;50.240;8.596;2023-07-13T03:08:44;21.60;81.00
3690;DHT22;1861;50.240;8.596;2023-07-13T03:11:15;21.60;81.00
3690;DHT22;1861;50.240;8.596;2023-07-13T03:13:48;21.60;80.40
3690;DHT22;1861;50.240;8.596;2023-07-13T03:16:18;21.50;81.00
3690;DHT22;1861;50.240;8.596;2023-07-13T03:18:49;21.50;81.40
3690;DHT22;1861;50.240;8.596;2023-07-13T03:21:17;21.50;81.20
3690;DHT22;1861;50.240;8.596;2023-07-13T03:23:46;21.40;81.40
3690;DHT22;1861;50.240;8.596;2023-07-13T03:26:16;21.30;81.40
3690;DHT22;1861;50.240;8.596;2023-07-13T03:28:45;21.30;81.60
3690;DHT22;1861;50.240;8.596;2023-07-13T03:31:21;21.40;81.90
3690;DHT22;1861;50.240;8.596;2023-07-13T03:33:50;21.20;81.50
3690;DHT22;1861;50.240;8.596;2023-07-13T03:36:20;21.20;81.90
3690;DHT22;1861;50.240;8.596;2023-07-13T03:38:52;21.20;82.20
3690;DHT22;1861;50.240;8.596;2023-07-13T03:41:25;21.20;81.90
3690;DHT22;1861;50.240;8.596;2023-07-13T03:43:54;21.20;81.60
3690;DHT22;1861;50.240;8.596;2023-07-13T03:46:25;21.20;81.50
3690;DHT22;1861;50.240;8.596;2023-07-13T03:48:54;21.20;81.60
3690;DHT22;1861;50.240;8.596;2023-07-13T03:51:22;21.30;81.90
3690;DHT22;1861;50.240;8.596;2023-07-13T03:53:51;21.10;82.00
3690;DHT22;1861;50.240;8.596;2023-07-13T03:56:20;21.20;82.30
3690;DHT22;1861;50.240;8.596;2023-07-13T03:58:49;21.20;82.00
3690;DHT22;1861;50.240;8.596;2023-07-13T04:01:21;21.20;82.10
3690;DHT22;1861;50.240;8.596;2023-07-13T04:03:51;21.20;81.40
3690;DHT22;1861;50.240;8.596;2023-07-13T04:06:27;21.20;81.20
3690;DHT22;1861;50.240;8.596;2023-07-13T04:08:57;21.10;81.90
3690;DHT22;1861;50.240;8.596;2023-07-13T04:11:27;21.20;82.20
3690;DHT22;1861;50.240;8.596;2023-07-13T04:13:56;21.20;82.00
3690;DHT22;1861;50.240;8.596;2023-07-13T04:16:24;21.20;81.70
3690;DHT22;1861;50.240;8.596;2023-07-13T04:18:55;21.10;82.50
3690;DHT22;1861;50.240;8.596;2023-07-13T04:21:27;21.10;82.00
3690;DHT22;1861;50.240;8.596;2023-07-13T04:23:56;21.10;82.60
3690;DHT22;1861;50.240;8.596;2023-07-13T04:26:24;21.10;82.30
3690;DHT22;1861;50.240;8.596;2023-07-13T04:28:52;21.00;82.40
3690;DHT22;1861;50.240;8.596;2023-07-13T04:31:21;21.00;83.00
3690;DHT22;1861;50.240;8.596;2023-07-13T04:33:49;21.10;82.80
3690;DHT22;1861;50.240;8.596;2023-07-13T04:36:19;21.00;83.00
3690;DHT22;1861;50.240;8.596;2023-07-13T04:38:48;21.10;83.20
3690;DHT22;1861;50.240;8.596;2023-07-13T04:41:16;21.00;83.40
3690;DHT22;1861;50.240;8.596;2023-07-13T04:43:44;21.00;83.40
3690;DHT22;1861;50.240;8.596;2023-07-13T04:46:14;21.10;83.20
3690;DHT22;1861;50.240;8.596;2023-07-13T04:48:44;21.10;82.90
3690;DHT22;1861;50.240;8.596;2023-07-13T04:51:12;20.90;83.40
3690;DHT22;1861;50.240;8.596;2023-07-13T04:53:42;21.00;83.40
3690;DHT22;1861;50.240;8.596;2023-07-13T04:56:11;21.10;83.50
3690;DHT22;1861;50.240;8.596;2023-07-13T04:58:39;21.10;83.10
3690;DHT22;1861;50.240;8.596;2023-07-13T05:01:09;21.10;83.40
3690;DHT22;1861;50.240;8.596;2023-07-13T05:03:38;21.10;83.50
3690;DHT22;1861;50.240;8.596;2023-07-13T05:06:08;21.10;83.40
3690;DHT22;1861;50.240;8.596;2023-07-13T05:08:37;21.10;83.70
3690;DHT22;1861;50.240;8.596;2023-07-13T05:11:07;21.10;83.20
3690;DHT22;1861;50.240;8.596;2023-07-13T05:13:35;21.10;83.50
3690;DHT22;1861;50.240;8.596;2023-07-13T05:16:04;21.10;83.60
3690;DHT22;1861;50.240;8.596;2023-07-13T05:18:35;21.20;83.20
3690;DHT22;1861;50.240;8.596;2023-07-13T05:21:09;21.20;83.90
3690;DHT22;1861;50.240;8.596;2023-07-13T05:23:39;21.30;83.90
3690;DHT22;1861;50.240;8.596;2023-07-13T05:26:10;21.30;83.80
3690;DHT22;1861;50.240;8.596;2023-07-13T05:28:38;21.30;83.30
3690;DHT22;1861;50.240;8.596;2023-07-13T05:31:31;21.40;83.30
3690;DHT22;1861;50.240;8.596;2023-07-13T05:33:59;21.40;82.90
3690;DHT22;1861;50.240;8.596;2023-07-13T05:36:28;21.50;82.30
3690;DHT22;1861;50.240;8.596;2023-07-13T05:38:56;21.50;82.20
3690;DHT22;1861;50.240;8.596;2023-07-13T05:41:25;21.50;81.40
3690;DHT22;1861;50.240;8.596;2023-07-13T05:43:53;21.50;81.70
3690;DHT22;1861;50.240;8.596;2023-07-13T05:46:21;21.60;81.20
3690;DHT22;1861;50.240;8.596;2023-07-13T05:48:50;21.60;80.90
3690;DHT22;1861;50.240;8.596;2023-07-13T05:51:18;21.60;81.30
3690;DHT22;1861;50.240;8.596;2023-07-13T05:53:46;21.60;80.30
3690;DHT22;1861;50.240;8.596;2023-07-13T05:56:14;21.60;81.00
3690;DHT22;1861;50.240;8.596;2023-07-13T05:58:44;21.60;79.90
3690;DHT22;1861;50.240;8.596;2023-07-13T06:01:13;21.60;80.40
3690;DHT22;1861;50.240;8.596;2023-07-13T06:03:42;21.60;80.10
3690;DHT22;1861;50.240;8.596;2023-07-13T06:06:11;21.50;79.80
3690;DHT22;1861;50.240;8.596;2023-07-13T06:08:39;21.50;79.60
3690;DHT22;1861;50.240;8.596;2023-07-13T06:11:15;21.50;79.60
3690;DHT22;1861;50.240;8.596;2023-07-13T06:13:45;21.60;79.50
3690;DHT22;1861;50.240;8.596;2023-07-13T06:16:14;21.60;79.90
3690;DHT22;1861;50.240;8.596;2023-07-13T06:18:42;21.70;80.00
3690;DHT22;1861;50.240;8.596;2023-07-13T06:21:12;21.70;79.90
3690;DHT22;1861;50.240;8.596;2023-07-13T06:23:41;21.70;80.00
3690;DHT22;1861;50.240;8.596;2023-07-13T06:26:10;21.60;79.60
3690;DHT22;1861;50.240;8.596;2023-07-13T06:28:38;21.70;80.50
3690;DHT22;1861;50.240;8.596;2023-07-13T06:31:10;21.80;80.50
3690;DHT22;1861;50.240;8.596;2023-07-13T06:33:39;21.80;80.10
3690;DHT22;1861;50.240;8.596;2023-07-13T06:36:08;21.80;80.50
3690;DHT22;1861;50.240;8.596;2023-07-13T06:38:37;21.90;81.70
3690;DHT22;1861;50.240;8.596;2023-07-13T06:41:06;21.90;81.50
3690;DHT22;1861;50.240;8.596;2023-07-13T06:43:35;21.90;81.90
3690;DHT22;1861;50.240;8.596;2023-07-13T06:46:03;22.00;81.90
3690;DHT22;1861;50.240;8.596;2023-07-13T06:48:33;22.00;81.80
3690;DHT22;1861;50.240;8.596;2023-07-13T06:51:02;22.00;80.70
3690;DHT22;1861;50.240;8.596;2023-07-13T06:53:30;21.80;80.60
3690;DHT22;1861;50.240;8.596;2023-07-13T06:55:59;21.90;80.10
3690;DHT22;1861;50.240;8.596;2023-07-13T06:58:27;21.90;80.30
3690;DHT22;1861;50.240;8.596;2023-07-13T07:00:55;22.00;81.20
3690;DHT22;1861;50.240;8.596;2023-07-13T07:03:23;22.00;80.00
3690;DHT22;1861;50.240;8.596;2023-07-13T07:05:53;22.00;80.70
3690;DHT22;1861;50.240;8.596;2023-07-13T07:08:21;22.10;81.20
3690;DHT22;1861;50.240;8.596;2023-07-13T07:10:49;22.10;81.40
3690;DHT22;1861;50.240;8.596;2023-07-13T07:13:21;22.10;82.00
3690;DHT22;1861;50.240;8.596;2023-07-13T07:15:50;22.10;81.40
3690;DHT22;1861;50.240;8.596;2023-07-13T07:18:18;22.20;81.80
3690;DHT22;1861;50.240;8.596;2023-07-13T07:20:48;22.20;81.30
3690;DHT22;1861;50.240;8.596;2023-07-13T07:23:18;22.20;81.20
3690;DHT22;1861;50.240;8.596;2023-07-13T07:25:46;22.20;81.30
3690;DHT22;1861;50.240;8.596;2023-07-13T07:28:15;22.10;80.40
3690;DHT22;1861;50.240;8.596;2023-07-13T07:30:48;22.10;80.30
3690;DHT22;1861;50.240;8.596;2023-07-13T07:33:19;22.10;80.00
3690;DHT22;1861;50.240;8.596;2023-07-13T07:35:48;22.10;79.80
3690;DHT22;1861;50.240;8.596;2023-07-13T07:38:20;22.10;80.60
3690;DHT22;1861;50.240;8.596;2023-07-13T07:40:51;22.20;81.00
3690;DHT22;1861;50.240;8.596;2023-07-13T07:43:22;22.20;80.90
3690;DHT22;1861;50.240;8.596;2023-07-13T07:45:50;22.30;80.40
3690;DHT22;1861;50.240;8.596;2023-07-13T07:48:18;22.20;80.50
3690;DHT22;1861;50.240;8.596;2023-07-13T07:50:47;22.30;81.00
3690;DHT22;1861;50.240;8.596;2023-07-13T07:53:15;22.30;80.00
3690;DHT22;1861;50.240;8.596;2023-07-13T07:55:44;22.30;80.10
3690;DHT22;1861;50.240;8.596;2023-07-13T07:58:15;22.30;80.10
3690;DHT22;1861;50.240;8.596;2023-07-13T08:01:04;22.30;80.10
3690;DHT22;1861;50.240;8.596;2023-07-13T08:03:36;22.30;80.10
3690;DHT22;1861;50.240;8.596;2023-07-13T08:06:07;22.40;80.00
3690;DHT22;1861;50.240;8.596;2023-07-13T08:08:38;22.40;80.50
3690;DHT22;1861;50.240;8.596;2023-07-13T08:11:08;22.40;80.30
3690;DHT22;1861;50.240;8.596;2023-07-13T08:13:40;22.40;80.20
3690;DHT22;1861;50.240;8.596;2023-07-13T08:16:08;22.40;80.10
3690;DHT22;1861;50.240;8.596;2023-07-13T08:18:38;22.40;80.40
3690;DHT22;1861;50.240;8.596;2023-07-13T08:21:07;22.50;80.10
3690;DHT22;1861;50.240;8.596;2023-07-13T08:23:36;22.50;79.90
3690;DHT22;1861;50.240;8.596;2023-07-13T08:26:05;22.50;79.60
3690;DHT22;1861;50.240;8.596;2023-07-13T08:28:35;22.50;80.30
3690;DHT22;1861;50.240;8.596;2023-07-13T08:31:04;22.50;80.50
3690;DHT22;1861;50.240;8.596;2023-07-13T08:33:34;22.50;80.50
3690;DHT22;1861;50.240;8.596;2023-07-13T08:36:03;22.50;81.80
3690;DHT22;1861;50.240;8.596;2023-07-13T08:38:32;22.60;82.20
3690;DHT22;1861;50.240;8.596;2023-07-13T08:41:09;22.60;81.80
3690;DHT22;1861;50.240;8.596;2023-07-13T08:43:41;22.60;80.80
3690;DHT22;1861;50.240;8.596;2023-07-13T08:46:14;22.50;80.70
3690;DHT22;1861;50.240;8.596;2023-07-13T08:48:47;22.50;79.80
3690;DHT22;1861;50.240;8.596;2023-07-13T08:51:30;22.50;79.80
3690;DHT22;1861;50.240;8.596;2023-07-13T08:54:01;22.50;79.80
3690;DHT22;1861;50.240;8.596;2023-07-13T08:56:31;22.50;79.30
3690;DHT22;1861;50.240;8.596;2023-07-13T08:59:09;22.50;79.50
3690;DHT22;1861;50.240;8.596;2023-07-13T09:01:54;22.50;78.40
3690;DHT22;1861;50.240;8.596;2023-07-13T09:04:27;22.50;78.50
3690;DHT22;1861;50.240;8.596;2023-07-13T09:07:03;22.50;79.00
3690;DHT22;1861;50.240;8.596;2023-07-13T09:09:52;22.50;78.70
3690;DHT22;1861;50.240;8.596;2023-07-13T09:12:27;22.60;78.60
3690;DHT22;1861;50.240;8.596;2023-07-13T09:15:04;22.60;77.20
3690;DHT22;1861;50.240;8.596;2023-07-13T09:17:36;22.60;76.20
3690;DHT22;1861;50.240;8.596;2023-07-13T09:20:17;22.60;76.20
3690;DHT22;1861;50.240;8.596;2023-07-13T09:22:50;22.70;79.00
3690;DHT22;1861;50.240;8.596;2023-07-13T09:25:26;22.60;78.60
3690;DHT22;1861;50.240;8.596;2023-07-13T09:27:58;22.70;78.80
3690;DHT22;1861;50.240;8.596;2023-07-13T09:30:34;22.70;78.90
3690;DHT22;1861;50.240;8.596;2023-07-13T09:33:05;22.70;78.60
3690;DHT22;1861;50.240;8.596;2023-07-13T09:35:34;22.70;79.70
3690;DHT22;1861;50.240;8.596;2023-07-13T09:38:11;22.70;79.60
3690;DHT22;1861;50.240;8.596;2023-07-13T09:40:46;22.70;79.30
3690;DHT22;1861;50.240;8.596;2023-07-13T09:43:17;22.80;78.80
3690;DHT22;1861;50.240;8.596;2023-07-13T09:45:48;22.80;78.20
3690;DHT22;1861;50.240;8.596;2023-07-13T09:48:17;22.80;78.40
3690;DHT22;1861;50.240;8.596;2023-07-13T09:50:46;22.80;79.40
3690;DHT22;1861;50.240;8.596;2023-07-13T09:53:15;22.80;79.40
3690;DHT22;1861;50.240;8.596;2023-07-13T09:55:45;22.80;80.20
3690;DHT22;1861;50.240;8.596;2023-07-13T09:58:20;22.80;81.20
3690;DHT22;1861;50.240;8.596;2023-07-13T10:00:58;22.90;82.20
3690;DHT22;1861;50.240;8.596;2023-07-13T10:03:28;22.80;78.60
3690;DHT22;1861;50.240;8.596;2023-07-13T10:06:09;22.80;79.90
3690;DHT22;1861;50.240;8.596;2023-07-13T10:08:38;22.90;80.40
3690;DHT22;1861;50.240;8.596;2023-07-13T10:11:11;22.80;80.50
3690;DHT22;1861;50.240;8.596;2023-07-13T10:13:42;22.90;80.40
3690;DHT22;1861;50.240;8.596;2023-07-13T10:16:13;22.80;80.10
3690;DHT22;1861;50.240;8.596;2023-07-13T10:18:46;22.80;78.80
3690;DHT22;1861;50.240;8.596;2023-07-13T10:21:16;22.80;78.20
3690;DHT22;1861;50.240;8.596;2023-07-13T10:23:51;22.80;77.20
3690;DHT22;1861;50.240;8.596;2023-07-13T10:26:25;22.80;77.10
3690;DHT22;1861;50.240;8.596;2023-07-13T10:28:56;22.80;77.00
3690;DHT22;1861;50.240;8.596;2023-07-13T10:31:26;22.80;77.20
3690;DHT22;1861;50.240;8.596;2023-07-13T10:33:54;22.80;78.60
3690;DHT22;1861;50.240;8.596;2023-07-13T10:36:34;22.90;79.20
3690;DHT22;1861;50.240;8.596;2023-07-13T10:39:05;22.90;80.00
3690;DHT22;1861;50.240;8.596;2023-07-13T10:41:37;23.00;81.10
3690;DHT22;1861;50.240;8.596;2023-07-13T10:44:14;23.00;81.60
3690;DHT22;1861;50.240;8.596;2023-07-13T10:46:44;23.00;82.00
3690;DHT22;1861;50.240;8.596;2023-07-13T10:49:13;23.10;81.30
3690;DHT22;1861;50.240;8.596;2023-07-13T10:51:42;23.10;81.50
3690;DHT22;1861;50.240;8.596;2023-07-13T10:54:21;23.10;80.60
3690;DHT22;1861;50.240;8.596;2023-07-13T10:56:52;23.10;81.10
3690;DHT22;1861;50.240;8.596;2023-07-13T10:59:25;23.10;81.60
3690;DHT22;1861;50.240;8.596;2023-07-13T11:01:59;23.10;81.90
3690;DHT22;1861;50.240;8.596;2023-07-13T11:04:40;23.00;82.50
3690;DHT22;1861;50.240;8.596;2023-07-13T11:07:17;23.00;81.80
3690;DHT22;1861;50.240;8.596;2023-07-13T11:09:50;23.10;82.40
3690;DHT22;1861;50.240;8.596;2023-07-13T11:12:50;23.10;82.40
3690;DHT22;1861;50.240;8.596;2023-07-13T11:15:43;23.10;81.60
3690;DHT22;1861;50.240;8.596;2023-07-13T11:18:22;23.00;80.30
3690;DHT22;1861;50.240;8.596;2023-07-13T11:20:52;23.00;80.90
3690;DHT22;1861;50.240;8.596;2023-07-13T11:24:03;23.10;81.50
3690;DHT22;1861;50.240;8.596;2023-07-13T11:26:39;23.10;81.70
3690;DHT22;1861;50.240;8.596;2023-07-13T11:29:12;23.00;81.30
3690;DHT22;1861;50.240;8.596;2023-07-13T11:31:52;23.00;82.50
3690;DHT22;1861;50.240;8.596;2023-07-13T11:34:27;23.00;83.10
3690;DHT22;1861;50.240;8.596;2023-07-13T11:36:58;23.00;82.00
3690;DHT22;1861;50.240;8.596;2023-07-13T11:39:31;23.00;80.80
3690;DHT22;1861;50.240;8.596;2023-07-13T11:42:01;23.10;81.00
3690;DHT22;1861;50.240;8.596;2023-07-13T11:44:32;23.20;81.80
3690;DHT22;1861;50.240;8.596;2023-07-13T11:47:14;23.30;82.50
3690;DHT22;1861;50.240;8.596;2023-07-13T11:49:50;23.30;83.20
3690;DHT22;1861;50.240;8.596;2023-07-13T11:52:22;23.40;82.90
3690;DHT22;1861;50.240;8.596;2023-07-13T11:54:52;23.20;83.20
3690;DHT22;1861;50.240;8.596;2023-07-13T11:57:25;23.20;83.50
3690;DHT22;1861;50.240;8.596;2023-07-13T11:59:55;23.20;82.70
3690;DHT22;1861;50.240;8.596;2023-07-13T12:02:28;23.20;83.30
3690;DHT22;1861;50.240;8.596;2023-07-13T12:04:59;23.30;84.20
3690;DHT22;1861;50.240;8.596;2023-07-13T12:07:31;23.30;83.70
3690;DHT22;1861;50.240;8.596;2023-07-13T12:10:01;23.30;83.10
3690;DHT22;1861;50.240;8.596;2023-07-13T12:12:29;23.20;83.30
3690;DHT22;1861;50.240;8.596;2023-07-13T12:14:58;23.20;80.90
3690;DHT22;1861;50.240;8.596;2023-07-13T12:17:27;23.40;81.90
3690;DHT22;1861;50.240;8.596;2023-07-13T12:19:56;23.40;81.60
3690;DHT22;1861;50.240;8.596;2023-07-13T12:22:25;23.40;81.90
3690;DHT22;1861;50.240;8.596;2023-07-13T12:24:54;23.30;81.70
3690;DHT22;1861;50.240;8.596;2023-07-13T12:27:25;23.30;82.00
3690;DHT22;1861;50.240;8.596;2023-07-13T12:29:59;23.40;82.40
3690;DHT22;1861;50.240;8.596;2023-07-13T12:32:27;23.30;82.50
3690;DHT22;1861;50.240;8.596;2023-07-13T12:35:13;23.30;82.60
3690;DHT22;1861;50.240;8.596;2023-07-13T12:37:44;23.30;83.10
3690;DHT22;1861;50.240;8.596;2023-07-13T12:40:14;23.30;83.90
3690;DHT22;1861;50.240;8.596;2023-07-13T12:42:43;23.20;82.70
3690;DHT22;1861;50.240;8.596;2023-07-13T12:45:19;23.20;82.30
3690;DHT22;1861;50.240;8.596;2023-07-13T12:47:49;23.20;83.00
3690;DHT22;1861;50.240;8.596;2023-07-13T12:50:20;23.20;81.90
3690;DHT22;1861;50.240;8.596;2023-07-13T12:52:54;23.20;82.20
3690;DHT22;1861;50.240;8.596;2023-07-13T12:55:22;23.20;82.60
3690;DHT22;1861;50.240;8.596;2023-07-13T12:57:53;23.20;83.30
3690;DHT22;1861;50.240;8.596;2023-07-13T13:00:24;23.20;83.60
3690;DHT22;1861;50.240;8.596;2023-07-13T13:02:55;23.20;83.50
3690;DHT22;1861;50.240;8.596;2023-07-13T13:05:41;23.20;83.90
3690;DHT22;1861;50.240;8.596;2023-07-13T13:08:13;23.20;84.40
3690;DHT22;1861;50.240;8.596;2023-07-13T13:10:42;23.10;84.80
3690;DHT22;1861;50.240;8.596;2023-07-13T13:13:10;23.10;82.90
3690;DHT22;1861;50.240;8.596;2023-07-13T13:15:39;23.20;83.60
3690;DHT22;1861;50.240;8.596;2023-07-13T13:18:15;23.10;84.00
3690;DHT22;1861;50.240;8.596;2023-07-13T13:20:44;23.10;82.70
3690;DHT22;1861;50.240;8.596;2023-07-13T13:23:16;23.10;82.90
3690;DHT22;1861;50.240;8.596;2023-07-13T13:25:46;23.20;83.40
3690;DHT22;1861;50.240;8.596;2023-07-13T13:28:16;23.30;83.60
3690;DHT22;1861;50.240;8.596;2023-07-13T13:30:46;23.30;83.50
3690;DHT22;1861;50.240;8.596;2023-07-13T13:33:16;23.30;83.10
3690;DHT22;1861;50.240;8.596;2023-07-13T13:35:45;23.20;82.80
3690;DHT22;1861;50.240;8.596;2023-07-13T13:38:16;23.20;82.70
3690;DHT22;1861;50.240;8.596;2023-07-13T13:40:45;23.20;82.80
3690;DHT22;1861;50.240;8.596;2023-07-13T13:43:17;23.20;82.60
3690;DHT22;1861;50.240;8.596;2023-07-13T13:45:46;23.20;83.00
3690;DHT22;1861;50.240;8.596;2023-07-13T13:48:16;23.20;83.70
3690;DHT22;1861;50.240;8.596;2023-07-13T13:50:47;23.20;83.80
3690;DHT22;1861;50.240;8.596;2023-07-13T13:53:16;23.20;83.60
3690;DHT22;1861;50.240;8.596;2023-07-13T13:55:44;23.20;83.50
3690;DHT22;1861;50.240;8.596;2023-07-13T13:58:13;23.20;83.80
3690;DHT22;1861;50.240;8.596;2023-07-13T14:00:41;23.30;83.90
3690;DHT22;1861;50.240;8.596;2023-07-13T14:03:15;23.40;83.30
3690;DHT22;1861;50.240;8.596;2023-07-13T14:05:44;23.40;83.40
3690;DHT22;1861;50.240;8.596;2023-07-13T14:08:15;23.40;84.00
3690;DHT22;1861;50.240;8.596;2023-07-13T14:10:48;23.30;84.30
3690;DHT22;1861;50.240;8.596;2023-07-13T14:13:19;23.30;84.30
3690;DHT22;1861;50.240;8.596;2023-07-13T14:15:48;23.20;84.90
3690;DHT22;1861;50.240;8.596;2023-07-13T14:18:16;23.20;85.30
3690;DHT22;1861;50.240;8.596;2023-07-13T14:20:45;23.30;85.50
3690;DHT22;1861;50.240;8.596;2023-07-13T14:23:15;23.30;85.80
3690;DHT22;1861;50.240;8.596;2023-07-13T14:25:45;23.30;86.20
3690;DHT22;1861;50.240;8.596;2023-07-13T14:28:22;23.30;85.70
3690;DHT22;1861;50.240;8.596;2023-07-13T14:30:52;23.30;84.20
3690;DHT22;1861;50.240;8.596;2023-07-13T14:33:22;23.30;84.30
3690;DHT22;1861;50.240;8.596;2023-07-13T14:35:50;23.30;84.10
3690;DHT22;1861;50.240;8.596;2023-07-13T14:38:21;23.40;84.90
3690;DHT22;1861;50.240;8.596;2023-07-13T14:40:49;23.50;85.40
3690;DHT22;1861;50.240;8.596;2023-07-13T14:43:17;23.50;85.20
3690;DHT22;1861;50.240;8.596;2023-07-13T14:45:48;23.50;85.60
3690;DHT22;1861;50.240;8.596;2023-07-13T14:48:19;23.60;85.80
3690;DHT22;1861;50.240;8.596;2023-07-13T14:50:51;23.60;85.90
3690;DHT22;1861;50.240;8.596;2023-07-13T14:53:24;23.60;86.10
3690;DHT22;1861;50.240;8.596;2023-07-13T14:55:52;23.60;86.50
3690;DHT22;1861;50.240;8.596;2023-07-13T14:58:20;23.50;86.70
3690;DHT22;1861;50.240;8.596;2023-07-13T15:00:48;23.50;86.30
3690;DHT22;1861;50.240;8.596;2023-07-13T15:03:22;23.50;86.20
3690;DHT22;1861;50.240;8.596;2023-07-13T15:05:52;23.50;86.00
3690;DHT22;1861;50.240;8.596;2023-07-13T15:08:22;23.50;86.20
3690;DHT22;1861;50.240;8.596;2023-07-13T15:10:50;23.40;86.00
3690;DHT22;1861;50.240;8.596;2023-07-13T15:13:20;23.40;86.30
3690;DHT22;1861;50.240;8.596;2023-07-13T15:15:50;23.40;86.50
3690;DHT22;1861;50.240;8.596;2023-07-13T15:18:21;23.40;85.40
3690;DHT22;1861;50.240;8.596;2023-07-13T15:20:51;23.40;85.30
3690;DHT22;1861;50.240;8.596;2023-07-13T15:23:23;23.40;85.80
3690;DHT22;1861;50.240;8.596;2023-07-13T15:25:52;23.40;85.90
3690;DHT22;1861;50.240;8.596;2023-07-13T15:28:21;23.30;85.30
3690;DHT22;1861;50.240;8.596;2023-07-13T15:30:49;23.40;85.30
3690;DHT22;1861;50.240;8.596;2023-07-13T15:33:21;23.40;85.70
3690;DHT22;1861;50.240;8.596;2023-07-13T15:35:50;23.30;85.60
3690;DHT22;1861;50.240;8.596;2023-07-13T15:38:23;23.40;84.80
3690;DHT22;1861;50.240;8.596;2023-07-13T15:40:53;23.30;85.90
3690;DHT22;1861;50.240;8.596;2023-07-13T15:43:21;23.40;85.60
3690;DHT22;1861;50.240;8.596;2023-07-13T15:45:49;23.40;84.90
3690;DHT22;1861;50.240;8.596;2023-07-13T15:48:20;23.40;84.70
3690;DHT22;1861;50.240;8.596;2023-07-13T15:50:50;23.30;83.90
3690;DHT22;1861;50.240;8.596;2023-07-13T15:53:21;23.30;84.50
3690;DHT22;1861;50.240;8.596;2023-07-13T15:55:52;23.30;84.60
3690;DHT22;1861;50.240;8.596;2023-07-13T15:58:20;23.30;85.00
3690;DHT22;1861;50.240;8.596;2023-07-13T16:00:48;23.30;85.20
3690;DHT22;1861;50.240;8.596;2023-07-13T16:03:19;23.30;85.50
3690;DHT22;1861;50.240;8.596;2023-07-13T16:05:48;23.30;85.90
3690;DHT22;1861;50.240;8.596;2023-07-13T16:08:23;23.30;86.80
3690;DHT22;1861;50.240;8.596;2023-07-13T16:10:53;23.30;83.50
3690;DHT22;1861;50.240;8.596;2023-07-13T16:13:23;23.30;83.60
3690;DHT22;1861;50.240;8.596;2023-07-13T16:15:54;23.30;83.50
3690;DHT22;1861;50.240;8.596;2023-07-13T16:18:25;23.30;84.40
3690;DHT22;1861;50.240;8.596;2023-07-13T16:20:54;23.30;84.40
3690;DHT22;1861;50.240;8.596;2023-07-13T16:23:26;23.30;84.80
3690;DHT22;1861;50.240;8.596;2023-07-13T16:25:57;23.30;83.50